Puvirnituq, Canada
Current Conditions -  °F | °C
As of 7:00 AM on Sunday 25 Jan 2015 (Local Time) from CYPX Reporting Station
Clear Clear  
Wind Chill: -51°   Ceiling: Unl
Heat Index: -29°   Visibility: 9mi
Dew Point: -35°   Wind: 9mph
Humidity: 75%   Direction: 310°NW
Pressure: 29.71"   Gusts: NA
Location:  60.03°N, 77.28°W
Report Text: CYPX 251200Z AUTO 31008KT 9SM CLR M34/M37 A2971 RMK SLP066
Loading
Personal Weather Stations






























Interactive Weather Map New forecast layout! Learn more

10-Day Weather Forecast

Advertisements
Track Severe Weather on mobile